Terminal Aerodrome Forecast
Issued by NWS

Home | Current Version | Previous Version | Text Only | Print | Product List | Glossary On
Versions: 1 2 3 4 5 6 7 8 9 10 11 12 13 14
000
FTAK31 PAFA 221126
TAFAOR
TAF
PAOR 221126Z 2212/2312 VRB03KT P6SM BKN060
     FM222000 VRB03KT P6SM SCT060 BKN100 BKN200=

USA.gov is the U.S. government's official web portal to all federal, state and local government web resources and services.